Time;durP1;ratioP1;P1;durP2;ratioP2;P2;SDS_P1;SDS_P2;PMS_P1;PMS_P2;Temp;Humidity;BMP_temperature;BMP_pressure;BME280_temperature;BME280_humidity;BME280_pressure;Samples;Min_cycle;Max_cycle;Signal;HPM_P1;HPM_P2
2023/02/10 00:01:27;;;;;;;19.15;11.65;;;1.40;99.90;;;;;;4974593;28;20022;-78
2023/02/10 00:03:54;;;;;;;18.15;10.73;;;1.40;99.90;;;;;;4985839;28;20391;-79
2023/02/10 00:06:23;;;;;;;16.83;9.38;;;1.20;99.90;;;;;;4987985;28;20105;-79
2023/02/10 00:08:55;;;;;;;15.65;9.27;;;1.20;99.90;;;;;;4988393;28;20026;-79
2023/02/10 00:14:06;;;;;;;13.18;8.60;;;0.90;99.90;;;;;;4987857;28;20041;-80
2023/02/10 00:16:32;;;;;;;13.43;7.80;;;0.90;99.90;;;;;;4987268;28;20121;-80
2023/02/10 00:18:58;;;;;;;12.60;7.55;;;0.80;99.90;;;;;;4970940;28;20456;-78
2023/02/10 00:21:23;;;;;;;14.77;8.68;;;0.80;99.90;;;;;;4953917;28;20030;-79
2023/02/10 00:23:50;;;;;;;14.75;8.32;;;0.80;99.90;;;;;;4955443;28;20054;-78
2023/02/10 00:26:15;;;;;;;15.38;8.73;;;0.80;99.90;;;;;;4987991;28;20056;-79
2023/02/10 00:28:43;;;;;;;14.45;8.45;;;0.70;99.90;;;;;;4974935;28;20030;-80
2023/02/10 00:31:12;;;;;;;12.52;7.35;;;0.70;99.90;;;;;;4971032;28;20474;-80
2023/02/10 00:33:38;;;;;;;13.10;7.05;;;0.70;99.90;;;;;;4988397;28;20073;-79
2023/02/10 00:36:07;;;;;;;14.27;7.68;;;0.60;99.90;;;;;;4979505;28;20034;-79
2023/02/10 00:38:33;;;;;;;13.35;7.20;;;0.60;99.90;;;;;;4972540;28;20038;-80
2023/02/10 00:41:24;;;;;;;12.27;7.70;;;0.60;99.90;;;;;;4973633;28;20139;-77
2023/02/10 00:43:51;;;;;;;14.50;6.80;;;0.50;99.90;;;;;;4953954;28;20065;-80
2023/02/10 00:46:19;;;;;;;13.02;7.18;;;0.50;99.90;;;;;;4995147;28;20044;-80
2023/02/10 00:48:45;;;;;;;13.50;7.03;;;0.50;99.90;;;;;;4994651;28;20129;-80
2023/02/10 00:51:12;;;;;;;11.15;6.53;;;0.50;99.90;;;;;;4974275;28;20038;-77
2023/02/10 00:53:38;;;;;;;13.02;7.45;;;0.50;99.90;;;;;;4950670;28;20046;-80
2023/02/10 00:56:05;;;;;;;14.13;8.23;;;0.40;99.90;;;;;;4974333;28;20027;-80
2023/02/10 00:58:31;;;;;;;11.80;7.32;;;0.30;99.90;;;;;;4972483;28;20034;-79
2023/02/10 01:00:57;;;;;;;13.73;8.52;;;0.30;99.90;;;;;;4974802;28;20033;-79
2023/02/10 01:03:23;;;;;;;13.98;8.38;;;0.20;99.90;;;;;;4994189;28;20042;-79
2023/02/10 01:05:49;;;;;;;13.18;8.23;;;0.20;99.90;;;;;;4972894;28;20125;-80
2023/02/10 01:08:15;;;;;;;14.90;9.48;;;0.10;99.90;;;;;;4973379;28;20066;-78
2023/02/10 01:10:41;;;;;;;16.95;8.75;;;0.10;99.90;;;;;;4979278;28;20069;-80
2023/02/10 01:13:09;;;;;;;16.70;8.50;;;0.00;99.90;;;;;;4957496;28;20117;-79
2023/02/10 01:15:34;;;;;;;15.32;9.05;;;0.00;99.90;;;;;;4985973;28;20022;-80
2023/02/10 01:18:01;;;;;;;15.38;8.48;;;-0.10;99.90;;;;;;4991435;28;20030;-78
2023/02/10 01:20:26;;;;;;;15.35;9.52;;;-0.10;99.90;;;;;;4974090;28;20026;-80
2023/02/10 01:22:53;;;;;;;14.68;8.52;;;-0.20;99.90;;;;;;4974838;28;20065;-77
2023/02/10 01:25:18;;;;;;;12.73;7.38;;;-0.30;99.90;;;;;;4957753;28;20684;-80
2023/02/10 01:27:44;;;;;;;15.50;7.78;;;-0.30;99.90;;;;;;4954026;28;20696;-78
2023/02/10 01:30:12;;;;;;;14.73;8.00;;;-0.30;99.90;;;;;;4991830;28;20030;-79
2023/02/10 01:32:37;;;;;;;12.85;8.20;;;-0.30;99.90;;;;;;4953478;28;20105;-80
2023/02/10 01:35:04;;;;;;;14.38;8.45;;;-0.40;99.90;;;;;;4973910;28;20552;-77
2023/02/10 01:37:30;;;;;;;15.00;8.15;;;-0.50;99.90;;;;;;4956299;28;20392;-80
2023/02/10 01:39:55;;;;;;;16.40;8.55;;;-0.60;99.90;;;;;;4991385;28;20026;-79
2023/02/10 01:42:21;;;;;;;14.20;7.60;;;-0.60;99.90;;;;;;4994195;28;20038;-77
2023/02/10 01:44:47;;;;;;;12.52;7.95;;;-0.70;99.90;;;;;;4973795;28;20500;-77
2023/02/10 01:47:14;;;;;;;14.60;8.32;;;-0.60;99.90;;;;;;4957450;28;20732;-79
2023/02/10 01:49:45;;;;;;;14.25;8.43;;;-0.60;99.90;;;;;;4972352;28;20100;-79
2023/02/10 01:52:15;;;;;;;17.13;8.18;;;-0.60;99.90;;;;;;4971938;28;20515;-80
2023/02/10 01:54:52;;;;;;;15.25;7.82;;;-0.60;99.90;;;;;;4973413;28;20460;-78
2023/02/10 01:57:18;;;;;;;14.18;7.63;;;-0.60;99.90;;;;;;4973146;28;20407;-80
2023/02/10 01:59:44;;;;;;;15.30;7.03;;;-0.60;99.90;;;;;;4956193;28;20027;-79
2023/02/10 02:02:12;;;;;;;12.52;7.00;;;-0.50;99.90;;;;;;4973103;28;20024;-80
2023/02/10 02:05:03;;;;;;;14.05;8.10;;;-0.60;99.90;;;;;;4991209;28;20029;-78
2023/02/10 02:07:33;;;;;;;15.05;7.63;;;-0.60;99.90;;;;;;4965138;28;20045;-80
2023/02/10 02:10:01;;;;;;;14.25;7.72;;;-0.60;99.90;;;;;;4988647;28;20050;-80
2023/02/10 02:13:03;;;;;;;11.57;6.70;;;-0.80;99.90;;;;;;4991035;28;20030;-80
2023/02/10 02:15:50;;;;;;;15.07;7.88;;;-0.80;99.90;;;;;;4966219;28;20136;-79
2023/02/10 02:18:31;;;;;;;12.75;6.85;;;-0.80;99.90;;;;;;4967307;28;20486;-76
2023/02/10 02:20:59;;;;;;;11.90;6.93;;;-0.80;99.90;;;;;;4986379;28;20031;-79
2023/02/10 02:23:42;;;;;;;13.95;7.32;;;-0.70;99.90;;;;;;4956505;28;20097;-80
2023/02/10 02:26:14;;;;;;;14.75;6.88;;;-0.80;99.90;;;;;;4969788;28;20069;-80
2023/02/10 02:28:52;;;;;;;15.27;6.63;;;-0.80;99.90;;;;;;4975539;28;20078;-79
2023/02/10 02:31:36;;;;;;;13.10;7.13;;;-0.90;99.90;;;;;;4989256;28;20027;-78
2023/02/10 02:34:10;;;;;;;14.30;7.32;;;-1.00;99.90;;;;;;4990281;28;20372;-79
2023/02/10 02:36:50;;;;;;;14.27;7.05;;;-1.00;99.90;;;;;;4969469;28;20463;-80
2023/02/10 02:39:16;;;;;;;13.45;7.07;;;-1.00;99.90;;;;;;4992062;28;20065;-79
2023/02/10 02:41:42;;;;;;;13.48;7.97;;;-1.10;99.90;;;;;;4955683;28;20475;-80
2023/02/10 02:44:08;;;;;;;14.30;7.75;;;-1.20;99.90;;;;;;4972780;28;20022;-79
2023/02/10 02:46:47;;;;;;;11.88;6.82;;;-1.20;99.90;;;;;;4972587;28;20031;-80
2023/02/10 02:49:34;;;;;;;11.30;6.32;;;-1.20;99.90;;;;;;4991065;28;20037;-79
2023/02/10 02:52:14;;;;;;;15.45;7.38;;;-1.20;99.90;;;;;;4971659;28;20034;-80
2023/02/10 02:55:16;;;;;;;11.82;6.72;;;-1.20;99.90;;;;;;4955476;28;20073;-79
2023/02/10 02:57:50;;;;;;;16.00;7.35;;;-1.20;99.90;;;;;;4926839;28;20133;-78
2023/02/10 03:00:32;;;;;;;15.70;8.15;;;-1.20;99.90;;;;;;4970282;28;20490;-80
2023/02/10 03:02:59;;;;;;;13.88;7.00;;;-1.30;99.90;;;;;;4955726;28;20038;-78
2023/02/10 03:05:30;;;;;;;16.65;8.43;;;-1.30;99.90;;;;;;4972291;28;20770;-80
2023/02/10 03:07:56;;;;;;;13.88;7.43;;;-1.30;99.90;;;;;;4977302;28;20033;-80
2023/02/10 03:10:22;;;;;;;14.15;7.28;;;-1.40;99.90;;;;;;4983420;28;20061;-79
2023/02/10 03:12:50;;;;;;;13.75;7.55;;;-1.40;99.90;;;;;;4956489;28;20029;-78
2023/02/10 03:15:16;;;;;;;15.70;8.25;;;-1.30;99.90;;;;;;4967160;28;20038;-80
2023/02/10 03:17:42;;;;;;;15.38;7.68;;;-1.40;99.90;;;;;;4972000;28;20065;-79
2023/02/10 03:20:08;;;;;;;14.98;7.88;;;-1.40;99.90;;;;;;4972431;28;20105;-79
2023/02/10 03:22:34;;;;;;;12.30;7.05;;;-1.40;99.90;;;;;;4989563;28;20031;-78
2023/02/10 03:24:59;;;;;;;14.48;8.00;;;-1.50;99.90;;;;;;4978062;28;20042;-78
2023/02/10 03:27:25;;;;;;;17.13;8.30;;;-1.50;99.90;;;;;;4968897;28;20022;-76
2023/02/10 03:29:52;;;;;;;14.40;7.65;;;-1.50;99.90;;;;;;4988962;28;20038;-77
2023/02/10 03:32:19;;;;;;;14.75;7.90;;;-1.50;99.90;;;;;;4989212;28;20026;-76
2023/02/10 03:34:45;;;;;;;16.05;8.55;;;-1.50;99.90;;;;;;4972111;28;20042;-77
2023/02/10 03:37:11;;;;;;;13.70;7.43;;;-1.60;99.90;;;;;;4971802;28;20026;-77
2023/02/10 03:39:37;;;;;;;14.73;7.78;;;-1.50;99.90;;;;;;4971464;28;20032;-79
2023/02/10 03:42:03;;;;;;;13.98;7.45;;;-1.50;99.90;;;;;;4992547;28;20034;-77
2023/02/10 03:44:29;;;;;;;14.90;7.97;;;-1.60;99.90;;;;;;4955522;28;20053;-78
2023/02/10 03:46:54;;;;;;;15.02;8.32;;;-1.50;99.90;;;;;;4971484;28;20491;-77
2023/02/10 03:49:20;;;;;;;15.02;8.05;;;-1.60;99.90;;;;;;4969007;28;20069;-77
2023/02/10 03:51:46;;;;;;;14.77;7.53;;;-1.60;99.90;;;;;;4971749;28;20418;-77
2023/02/10 03:54:12;;;;;;;13.18;6.97;;;-1.50;99.90;;;;;;4956937;28;20060;-80
2023/02/10 03:56:54;;;;;;;12.68;7.07;;;-1.60;99.90;;;;;;5099702;27;20881;-80
2023/02/10 03:59:19;;;;;;;15.70;6.57;;;-1.60;99.90;;;;;;5073131;28;20025;-80
2023/02/10 04:01:45;;;;;;;15.50;7.07;;;-1.60;99.90;;;;;;5096363;28;20081;-80
2023/02/10 04:04:11;;;;;;;14.93;8.10;;;-1.70;99.90;;;;;;5095780;28;20024;-80
2023/02/10 04:06:37;;;;;;;11.40;6.38;;;-1.70;99.90;;;;;;5093845;28;20085;-80
2023/02/10 04:09:03;;;;;;;14.25;6.82;;;-1.80;99.90;;;;;;5099973;28;20103;-78
2023/02/10 04:11:28;;;;;;;10.07;5.10;;;-1.70;99.90;;;;;;5095724;28;20030;-80
2023/02/10 04:13:54;;;;;;;11.15;5.50;;;-1.70;99.90;;;;;;5093644;28;20473;-80
2023/02/10 04:16:22;;;;;;;11.40;5.78;;;-1.70;99.90;;;;;;5075605;28;20036;-78
2023/02/10 04:18:49;;;;;;;11.65;5.78;;;-1.80;99.90;;;;;;5099849;28;20035;-80
2023/02/10 04:21:15;;;;;;;13.13;5.72;;;-1.70;99.90;;;;;;5102255;28;20376;-79
2023/02/10 04:23:40;;;;;;;10.13;5.60;;;-1.70;99.90;;;;;;5102207;28;20369;-80
2023/02/10 04:26:06;;;;;;;11.23;5.63;;;-1.80;99.90;;;;;;5097311;28;20032;-80
2023/02/10 04:28:32;;;;;;;12.13;5.97;;;-1.80;99.90;;;;;;5097133;28;20034;-80
2023/02/10 04:30:59;;;;;;;11.60;6.07;;;-1.80;99.90;;;;;;5094840;28;20115;-80
2023/02/10 04:33:26;;;;;;;12.23;6.13;;;-1.90;99.90;;;;;;5101518;28;20024;-81
2023/02/10 04:35:53;;;;;;;10.88;5.95;;;-1.70;99.90;;;;;;5105066;28;20035;-81
2023/02/10 04:38:19;;;;;;;12.60;5.88;;;-1.70;99.90;;;;;;5096263;28;20028;-80
2023/02/10 04:40:45;;;;;;;12.05;6.13;;;-1.70;99.90;;;;;;5105492;28;20032;-80
2023/02/10 04:43:12;;;;;;;11.93;5.18;;;-1.70;99.90;;;;;;5093542;28;20032;-79
2023/02/10 04:45:37;;;;;;;11.48;5.60;;;-1.80;99.90;;;;;;5095101;28;20103;-80
2023/02/10 04:48:04;;;;;;;10.40;4.97;;;-1.80;99.90;;;;;;5096244;28;20110;-80
2023/02/10 04:50:29;;;;;;;12.38;5.47;;;-1.90;99.90;;;;;;5092339;28;20836;-79
2023/02/10 04:52:55;;;;;;;11.52;5.82;;;-1.70;99.90;;;;;;5093964;28;20119;-79
2023/02/10 04:55:21;;;;;;;11.85;5.05;;;-1.70;99.90;;;;;;5095840;28;20093;-81
2023/02/10 04:57:47;;;;;;;11.55;4.78;;;-1.80;99.90;;;;;;5094154;28;20120;-77
2023/02/10 05:00:13;;;;;;;11.00;5.10;;;-1.90;99.90;;;;;;5083401;28;20075;-81
2023/02/10 05:02:39;;;;;;;10.32;5.20;;;-1.90;99.90;;;;;;5101656;28;20020;-77
2023/02/10 05:05:05;;;;;;;10.13;5.53;;;-1.90;99.90;;;;;;5083036;28;20039;-81
2023/02/10 05:07:31;;;;;;;14.98;5.50;;;-2.00;99.90;;;;;;5083427;28;20392;-79
2023/02/10 05:09:57;;;;;;;10.13;4.47;;;-2.10;99.90;;;;;;5082021;28;20029;-80
2023/02/10 05:12:22;;;;;;;10.45;5.07;;;-2.00;99.90;;;;;;5074900;28;20035;-80
2023/02/10 05:14:48;;;;;;;12.27;6.10;;;-2.00;99.90;;;;;;5063484;28;20037;-80
2023/02/10 05:17:14;;;;;;;10.80;4.97;;;-2.00;99.90;;;;;;5069480;28;20081;-81
2023/02/10 05:19:39;;;;;;;11.23;5.80;;;-2.00;99.90;;;;;;5081487;28;20037;-81
2023/02/10 05:22:05;;;;;;;13.05;5.95;;;-1.90;99.90;;;;;;5078786;28;20024;-81
2023/02/10 05:24:31;;;;;;;10.80;5.43;;;-1.90;99.90;;;;;;5079050;28;20086;-76
2023/02/10 05:26:57;;;;;;;13.38;5.95;;;-1.70;99.90;;;;;;5062541;28;20036;-76
2023/02/10 05:29:23;;;;;;;14.38;6.15;;;-1.80;99.90;;;;;;5078346;28;20050;-76
2023/02/10 05:31:49;;;;;;;13.73;6.38;;;-1.90;99.90;;;;;;5071906;28;20506;-77
2023/02/10 05:34:14;;;;;;;12.25;6.13;;;-1.90;99.90;;;;;;5079713;28;20020;-78
2023/02/10 05:36:43;;;;;;;12.63;5.97;;;-2.00;99.90;;;;;;5081644;28;20044;-80
2023/02/10 05:39:24;;;;;;;12.05;5.60;;;-1.80;99.90;;;;;;5076174;28;20132;-82
2023/02/10 05:41:50;;;;;;;12.80;5.95;;;-1.90;99.90;;;;;;5081515;28;20506;-79
2023/02/10 05:44:16;;;;;;;13.15;6.03;;;-2.00;99.90;;;;;;5077531;28;20024;-81
2023/02/10 05:46:42;;;;;;;14.85;6.45;;;-1.90;99.90;;;;;;5080596;28;20042;-81
2023/02/10 05:49:08;;;;;;;13.13;6.90;;;-1.90;99.90;;;;;;5086073;28;20303;-78
2023/02/10 05:51:33;;;;;;;12.32;6.10;;;-1.90;99.90;;;;;;5085836;28;20564;-80
2023/02/10 05:53:59;;;;;;;10.95;5.35;;;-2.00;99.90;;;;;;5078707;28;20032;-79
2023/02/10 05:56:25;;;;;;;10.00;5.65;;;-2.00;99.90;;;;;;5062978;28;20105;-79
2023/02/10 05:58:50;;;;;;;12.73;5.75;;;-1.90;99.90;;;;;;5090774;28;20119;-81
2023/02/10 06:01:16;;;;;;;15.00;6.80;;;-1.80;99.90;;;;;;5083767;28;20063;-78
2023/02/10 06:03:42;;;;;;;11.85;6.35;;;-1.60;99.90;;;;;;5087197;28;20085;-79
2023/02/10 06:06:08;;;;;;;13.38;6.65;;;-1.80;99.90;;;;;;5081927;28;20408;-78
2023/02/10 06:08:33;;;;;;;12.85;6.82;;;-1.80;99.90;;;;;;5086571;28;20032;-79
2023/02/10 06:10:59;;;;;;;13.15;5.93;;;-1.90;99.90;;;;;;5084979;28;20028;-78
2023/02/10 06:13:25;;;;;;;16.50;7.78;;;-1.90;99.90;;;;;;5064688;28;20541;-81
2023/02/10 06:15:50;;;;;;;13.45;6.47;;;-2.10;99.90;;;;;;5080748;28;20045;-81
2023/02/10 06:18:16;;;;;;;13.85;6.93;;;-1.90;99.90;;;;;;5075317;28;20024;-79
2023/02/10 06:20:45;;;;;;;13.07;6.40;;;-2.00;99.90;;;;;;5073061;28;20036;-80
2023/02/10 06:23:11;;;;;;;15.43;6.35;;;-2.10;99.90;;;;;;5069713;28;20029;-81
2023/02/10 06:25:37;;;;;;;14.85;6.72;;;-2.10;99.90;;;;;;5086442;28;20033;-79
2023/02/10 06:28:03;;;;;;;13.82;6.50;;;-2.00;99.90;;;;;;5080657;28;20350;-81
2023/02/10 06:30:28;;;;;;;15.63;7.32;;;-1.80;99.90;;;;;;5070591;28;20101;-79
2023/02/10 06:32:54;;;;;;;13.18;6.32;;;-1.90;99.90;;;;;;5079757;28;20549;-81
2023/02/10 06:35:20;;;;;;;16.00;6.55;;;-1.90;99.90;;;;;;5064248;28;20495;-81
2023/02/10 06:37:45;;;;;;;12.85;6.45;;;-1.90;99.90;;;;;;5067625;28;20039;-79
2023/02/10 06:40:12;;;;;;;15.07;6.78;;;-1.80;99.90;;;;;;5063728;28;20029;-80
2023/02/10 06:42:38;;;;;;;16.25;8.27;;;-1.80;99.90;;;;;;5077857;28;20484;-79
2023/02/10 06:45:04;;;;;;;14.35;7.07;;;-1.80;99.90;;;;;;5076136;28;20114;-80
2023/02/10 06:47:30;;;;;;;14.85;6.57;;;-1.80;99.90;;;;;;5094667;28;20108;-81
2023/02/10 06:49:56;;;;;;;13.38;6.93;;;-1.70;99.90;;;;;;5077815;28;20699;-81
2023/02/10 06:52:24;;;;;;;19.30;8.43;;;-1.60;99.90;;;;;;5069657;28;20361;-80
2023/02/10 06:54:50;;;;;;;13.85;6.78;;;-1.60;99.90;;;;;;5080154;28;20044;-81
2023/02/10 06:57:16;;;;;;;14.43;6.75;;;-1.70;99.90;;;;;;5078842;28;20030;-81
2023/02/10 06:59:41;;;;;;;14.52;7.13;;;-1.80;99.90;;;;;;5077041;28;20107;-80
2023/02/10 07:02:10;;;;;;;14.88;7.43;;;-1.70;99.90;;;;;;5079203;28;20069;-77
2023/02/10 07:04:35;;;;;;;14.60;7.43;;;-1.70;99.90;;;;;;5085213;28;20031;-81
2023/02/10 07:07:01;;;;;;;16.88;7.75;;;-1.70;99.90;;;;;;5067992;28;20024;-81
2023/02/10 07:09:27;;;;;;;16.75;8.60;;;-1.50;99.90;;;;;;5066585;28;20029;-80
2023/02/10 07:11:53;;;;;;;17.85;8.10;;;-1.50;99.90;;;;;;5079560;28;20028;-80
2023/02/10 07:14:19;;;;;;;17.15;9.25;;;-1.50;99.90;;;;;;5073726;28;20508;-80
2023/02/10 07:16:45;;;;;;;19.45;9.73;;;-1.30;99.90;;;;;;5081130;28;20032;-80
2023/02/10 07:19:11;;;;;;;26.75;13.15;;;-1.30;99.90;;;;;;5064021;28;20484;-79
2023/02/10 07:21:38;;;;;;;26.05;11.80;;;-1.00;99.90;;;;;;5078719;28;20020;-79
2023/02/10 07:24:04;;;;;;;24.33;10.50;;;-0.90;99.90;;;;;;5080244;28;20028;-78
2023/02/10 07:26:30;;;;;;;26.67;10.52;;;-0.80;99.90;;;;;;5084892;28;20028;-77
2023/02/10 07:28:55;;;;;;;22.40;10.02;;;-0.50;99.90;;;;;;5062681;28;20032;-80
2023/02/10 07:31:21;;;;;;;22.23;10.63;;;-0.60;99.90;;;;;;5059588;28;20085;-79
2023/02/10 07:33:47;;;;;;;21.08;10.25;;;-0.60;99.90;;;;;;5079507;28;20058;-80
2023/02/10 07:36:13;;;;;;;17.30;8.48;;;-0.60;99.90;;;;;;5080209;28;20519;-77
2023/02/10 07:38:39;;;;;;;22.00;9.23;;;-0.50;99.90;;;;;;5088094;28;20028;-79
2023/02/10 07:41:06;;;;;;;18.15;9.57;;;-0.40;99.90;;;;;;5062175;28;20488;-78
2023/02/10 07:43:32;;;;;;;22.95;10.85;;;-0.30;99.90;;;;;;5061273;28;20410;-81
2023/02/10 07:46:09;;;;;;;21.00;9.93;;;-0.30;99.90;;;;;;5065253;28;20028;-80
2023/02/10 07:48:35;;;;;;;19.75;10.05;;;-0.20;99.90;;;;;;5083291;28;20029;-81
2023/02/10 07:51:01;;;;;;;19.77;10.23;;;-0.10;99.90;;;;;;5088625;28;20020;-79
2023/02/10 07:53:26;;;;;;;16.58;8.82;;;-0.10;99.90;;;;;;5085323;28;20365;-81
2023/02/10 07:55:52;;;;;;;18.58;9.50;;;-0.10;99.90;;;;;;5075489;28;20059;-80
2023/02/10 07:58:18;;;;;;;24.77;10.27;;;-0.10;99.90;;;;;;5075911;28;20085;-81
2023/02/10 08:00:43;;;;;;;20.92;10.70;;;0.00;99.90;;;;;;5077389;28;20497;-81
2023/02/10 08:03:14;;;;;;;22.02;11.55;;;0.00;99.90;;;;;;5061035;28;20484;-81
2023/02/10 08:05:41;;;;;;;22.40;12.43;;;0.00;99.90;;;;;;5083281;28;20034;-82
2023/02/10 08:08:10;;;;;;;16.90;8.73;;;0.00;99.90;;;;;;5060245;28;20032;-82
2023/02/10 08:10:39;;;;;;;17.38;9.57;;;0.00;99.90;;;;;;5084608;28;20477;-82
2023/02/10 08:13:05;;;;;;;20.48;9.95;;;0.00;99.90;;;;;;5079984;28;20039;-81
2023/02/10 08:15:32;;;;;;;14.75;8.15;;;0.00;99.90;;;;;;5074902;28;20540;-79
2023/02/10 08:18:01;;;;;;;18.50;10.38;;;0.10;99.90;;;;;;5077960;28;20027;-80
2023/02/10 08:20:27;;;;;;;18.95;9.40;;;0.10;99.90;;;;;;5082060;28;20546;-80
2023/02/10 08:22:56;;;;;;;16.55;8.93;;;0.20;99.90;;;;;;5026926;28;20291;-79
2023/02/10 08:25:22;;;;;;;17.13;9.13;;;0.20;99.90;;;;;;5016677;28;20041;-80
2023/02/10 08:27:48;;;;;;;16.25;8.32;;;0.30;99.90;;;;;;5031920;28;20033;-77
2023/02/10 08:30:14;;;;;;;18.88;9.52;;;0.30;99.90;;;;;;5031823;28;20045;-80
2023/02/10 08:32:39;;;;;;;18.27;9.32;;;0.40;99.90;;;;;;5031175;28;20040;-77
2023/02/10 08:35:05;;;;;;;20.20;10.77;;;0.40;99.90;;;;;;5032294;28;20040;-80
2023/02/10 08:37:31;;;;;;;21.70;11.98;;;0.50;99.90;;;;;;5015278;28;20035;-78
2023/02/10 08:39:58;;;;;;;24.35;12.93;;;0.50;99.90;;;;;;5032083;28;20103;-82
2023/02/10 08:42:24;;;;;;;34.88;17.02;;;0.60;99.90;;;;;;5015855;28;20059;-79
2023/02/10 08:44:50;;;;;;;31.35;15.13;;;0.60;99.90;;;;;;5034651;28;20036;-80
2023/02/10 08:47:16;;;;;;;28.42;14.70;;;0.60;99.90;;;;;;5035189;28;20040;-80
2023/02/10 08:49:42;;;;;;;42.10;19.05;;;0.70;99.90;;;;;;5035137;28;20040;-80
2023/02/10 08:52:09;;;;;;;28.27;15.32;;;0.70;99.90;;;;;;5024243;28;20123;-80
2023/02/10 08:54:35;;;;;;;25.85;13.48;;;0.80;99.90;;;;;;5034662;28;20033;-80
2023/02/10 08:57:01;;;;;;;29.58;14.15;;;0.80;99.90;;;;;;5035106;28;20563;-80
2023/02/10 08:59:26;;;;;;;26.50;12.88;;;0.90;99.90;;;;;;5017863;28;20033;-80
2023/02/10 09:01:52;;;;;;;23.50;11.23;;;0.90;99.90;;;;;;5034204;28;20553;-80
2023/02/10 09:04:19;;;;;;;31.23;14.27;;;1.00;99.90;;;;;;5034019;28;20029;-80
2023/02/10 09:06:44;;;;;;;29.05;13.77;;;1.00;99.90;;;;;;5035116;28;20041;-80
2023/02/10 09:09:13;;;;;;;30.17;14.50;;;1.00;99.90;;;;;;5033816;28;20035;-80
2023/02/10 09:11:39;;;;;;;30.67;14.55;;;1.10;99.90;;;;;;5033742;28;20041;-80
2023/02/10 09:14:06;;;;;;;28.92;14.15;;;1.20;99.90;;;;;;5017038;28;20033;-79
2023/02/10 09:16:31;;;;;;;31.60;14.50;;;1.30;99.90;;;;;;5034027;28;20063;-78
2023/02/10 09:18:57;;;;;;;26.25;13.10;;;1.30;99.90;;;;;;5035433;28;20021;-77
2023/02/10 09:21:24;;;;;;;25.67;12.90;;;1.40;99.90;;;;;;5016785;28;20036;-79
2023/02/10 09:23:50;;;;;;;26.33;12.00;;;1.50;99.90;;;;;;5017806;28;20025;-79
2023/02/10 09:26:15;;;;;;;25.80;12.68;;;1.60;99.90;;;;;;5025728;28;20564;-79
2023/02/10 09:28:41;;;;;;;26.45;12.95;;;1.60;99.90;;;;;;5017567;28;20114;-79
2023/02/10 09:31:09;;;;;;;22.23;11.02;;;1.70;99.90;;;;;;5034019;28;21028;-79
2023/02/10 09:33:35;;;;;;;23.67;10.73;;;1.70;99.90;;;;;;5017873;28;20072;-79
2023/02/10 09:36:19;;;;;;;25.90;11.23;;;1.80;99.90;;;;;;5034861;28;20087;-79
2023/02/10 09:38:44;;;;;;;22.92;10.68;;;1.80;99.90;;;;;;5035599;28;20063;-80
2023/02/10 09:41:13;;;;;;;26.52;12.23;;;1.80;99.90;;;;;;5015795;28;20924;-80
2023/02/10 09:43:58;;;;;;;24.20;10.75;;;1.90;99.90;;;;;;5017225;28;20037;-80
2023/02/10 09:46:39;;;;;;;26.55;11.43;;;1.90;99.90;;;;;;5033469;28;20033;-79
2023/02/10 09:49:12;;;;;;;25.98;11.05;;;2.00;99.90;;;;;;5050023;28;20564;-79
2023/02/10 09:51:46;;;;;;;27.77;12.20;;;2.10;99.90;;;;;;5016533;28;20041;-79
2023/02/10 09:54:13;;;;;;;32.55;14.27;;;2.10;99.90;;;;;;5034318;28;20532;-80
2023/02/10 09:56:39;;;;;;;31.15;13.98;;;2.20;99.90;;;;;;5032875;28;20059;-79
2023/02/10 09:59:10;;;;;;;43.30;20.05;;;2.20;99.90;;;;;;5016694;28;20033;-78
2023/02/10 10:01:47;;;;;;;39.40;17.75;;;2.30;99.90;;;;;;5031943;28;20036;-78
2023/02/10 10:04:18;;;;;;;40.58;18.63;;;2.40;99.90;;;;;;5034950;28;20040;-78
2023/02/10 10:06:56;;;;;;;49.47;20.45;;;2.50;99.90;;;;;;5016641;28;20037;-79
2023/02/10 10:09:40;;;;;;;48.90;20.38;;;2.50;99.90;;;;;;5032441;28;20036;-79
2023/02/10 10:12:16;;;;;;;40.75;17.23;;;2.60;99.90;;;;;;5015091;28;20037;-79
2023/02/10 10:14:45;;;;;;;44.80;19.40;;;2.80;99.90;;;;;;5015619;28;20037;-78
2023/02/10 10:17:32;;;;;;;45.55;19.90;;;2.90;99.90;;;;;;5016733;28;20047;-79
2023/02/10 10:20:30;;;;;;;38.63;16.95;;;2.90;99.90;;;;;;5016916;28;20037;-79
2023/02/10 10:23:17;;;;;;;36.90;17.65;;;2.90;99.90;;;;;;5012530;28;20460;-79
2023/02/10 10:26:13;;;;;;;48.33;19.73;;;2.90;99.90;;;;;;5033080;28;20539;-79
2023/02/10 10:29:12;;;;;;;48.50;20.30;;;3.00;99.90;;;;;;5034093;28;20036;-79
2023/02/10 10:31:41;;;;;;;40.90;19.20;;;3.00;99.90;;;;;;5020345;28;20106;-79
2023/02/10 10:34:07;;;;;;;44.63;20.10;;;3.20;99.90;;;;;;5033294;28;20116;-79
2023/02/10 10:36:38;;;;;;;43.50;17.38;;;3.30;99.90;;;;;;5034418;28;20420;-79
2023/02/10 10:39:34;;;;;;;56.28;22.02;;;3.50;99.90;;;;;;5032843;28;20044;-80
2023/02/10 10:42:16;;;;;;;46.53;19.75;;;3.50;99.90;;;;;;5014576;28;20052;-78
2023/02/10 10:44:43;;;;;;;48.17;23.13;;;3.60;99.90;;;;;;5032544;28;20335;-80
2023/02/10 10:47:25;;;;;;;50.88;21.67;;;3.50;99.90;;;;;;5033798;28;20566;-80
2023/02/10 10:49:51;;;;;;;48.72;21.63;;;3.70;99.90;;;;;;5032455;28;20389;-78
2023/02/10 10:52:19;;;;;;;44.30;20.60;;;3.80;99.90;;;;;;5014713;28;20084;-79
2023/02/10 10:54:45;;;;;;;41.85;18.23;;;3.80;99.90;;;;;;5032257;28;20037;-78
2023/02/10 10:57:15;;;;;;;52.88;22.00;;;4.00;99.90;;;;;;5033097;28;20052;-78
2023/02/10 10:59:45;;;;;;;49.35;21.73;;;4.20;99.90;;;;;;5031283;28;20272;-78
2023/02/10 11:02:14;;;;;;;48.85;20.75;;;4.20;99.90;;;;;;5031507;28;20029;-79
2023/02/10 11:04:42;;;;;;;38.60;17.65;;;4.20;99.90;;;;;;5032033;28;20036;-78
2023/02/10 11:07:20;;;;;;;46.67;18.45;;;4.30;99.90;;;;;;5032673;28;20051;-79
2023/02/10 11:09:52;;;;;;;41.53;18.65;;;4.40;99.90;;;;;;5033495;28;20029;-79
2023/02/10 11:12:24;;;;;;;45.28;19.13;;;4.40;99.90;;;;;;5015244;28;20848;-79
2023/02/10 11:14:54;;;;;;;52.25;21.95;;;4.60;99.90;;;;;;5031872;28;20037;-80
2023/02/10 11:17:35;;;;;;;46.00;20.73;;;4.60;99.90;;;;;;5015487;28;20047;-79
2023/02/10 11:20:25;;;;;;;53.85;22.98;;;4.70;99.90;;;;;;5031880;28;20039;-80
2023/02/10 11:22:59;;;;;;;44.95;19.40;;;4.70;99.90;;;;;;5030688;28;20036;-79
2023/02/10 11:25:35;;;;;;;45.33;22.60;;;5.00;99.90;;;;;;5032219;28;20136;-79
2023/02/10 11:28:04;;;;;;;48.30;21.48;;;5.10;99.90;;;;;;5015041;28;20539;-79
2023/02/10 11:30:30;;;;;;;53.75;23.38;;;5.10;99.90;;;;;;5015682;28;20461;-80
2023/02/10 11:32:57;;;;;;;49.78;20.27;;;5.20;99.90;;;;;;5031475;28;20106;-80
2023/02/10 11:35:24;;;;;;;52.50;23.17;;;5.20;99.90;;;;;;5020928;28;20030;-80
2023/02/10 11:37:55;;;;;;;53.83;25.75;;;5.40;99.90;;;;;;5036334;28;20113;-79
2023/02/10 11:40:28;;;;;;;50.58;23.02;;;5.40;99.90;;;;;;5034435;28;20025;-81
2023/02/10 11:42:57;;;;;;;48.95;21.58;;;5.50;99.90;;;;;;5022922;28;20033;-80
2023/02/10 11:45:29;;;;;;;42.53;19.60;;;5.60;99.90;;;;;;5042319;28;20021;-80
2023/02/10 11:48:25;;;;;;;49.05;23.05;;;5.80;99.90;;;;;;5035410;28;20033;-80
2023/02/10 11:51:05;;;;;;;38.30;18.27;;;5.70;99.90;;;;;;5024202;28;20083;-81
2023/02/10 11:53:35;;;;;;;41.10;19.45;;;5.90;99.90;;;;;;5039187;28;20025;-80
2023/02/10 11:56:17;;;;;;;;;;;5.90;99.90;;;;;;5052698;28;20053;-80
2023/02/10 11:59:03;;;;;;;44.90;20.23;;;6.00;99.90;;;;;;5037354;28;19916;-79
2023/02/10 12:01:40;;;;;;;42.58;20.77;;;6.20;99.90;;;;;;5034302;28;20258;-81
2023/02/10 12:04:24;;;;;;;41.60;18.95;;;6.30;99.90;;;;;;5039732;28;20044;-80
2023/02/10 12:07:05;;;;;;;47.17;22.40;;;6.20;99.90;;;;;;5037187;28;20029;-80
2023/02/10 12:09:42;;;;;;;37.42;18.60;;;6.20;99.90;;;;;;5038215;28;20041;-80
2023/02/10 12:12:30;;;;;;;48.33;20.90;;;6.40;99.90;;;;;;5049628;28;20045;-80
2023/02/10 12:15:24;;;;;;;39.00;17.10;;;6.50;99.90;;;;;;5039517;28;20033;-80
2023/02/10 12:18:04;;;;;;;39.58;18.38;;;6.70;99.90;;;;;;5046169;28;20033;-80
2023/02/10 12:20:53;;;;;;;38.05;17.73;;;6.70;99.90;;;;;;5018983;28;20030;-80
2023/02/10 12:23:41;;;;;;;34.17;15.43;;;6.70;99.90;;;;;;4982797;28;20038;-80
2023/02/10 12:26:19;;;;;;;36.38;15.75;;;6.90;99.90;;;;;;4968182;28;20446;-79
2023/02/10 12:29:13;;;;;;;36.20;15.88;;;6.90;99.90;;;;;;4972476;28;20121;-80
2023/02/10 12:31:56;;;;;;;34.25;15.05;;;6.90;99.90;;;;;;4981317;28;20030;-79
2023/02/10 12:34:38;;;;;;;41.22;19.02;;;6.90;99.90;;;;;;4964654;28;20479;-79
2023/02/10 12:37:13;;;;;;;42.35;20.17;;;7.00;99.90;;;;;;4969846;28;20053;-80
2023/02/10 12:39:50;;;;;;;36.75;18.38;;;7.20;99.90;;;;;;4964399;28;20242;-79
2023/02/10 12:42:42;;;;;;;42.80;19.60;;;7.40;99.90;;;;;;4972215;28;20023;-80
2023/02/10 12:45:24;;;;;;;44.83;21.00;;;7.30;99.90;;;;;;4998322;28;20061;-79
2023/02/10 12:48:13;;;;;;;45.65;20.92;;;7.30;99.90;;;;;;4982234;28;20044;-80
2023/02/10 12:50:58;;;;;;;43.75;20.08;;;7.40;99.90;;;;;;4981193;28;20100;-79
2023/02/10 12:53:28;;;;;;;35.10;15.75;;;7.40;99.90;;;;;;4963213;28;20533;-80
2023/02/10 12:55:58;;;;;;;;;;;7.40;99.90;;;;;;4988657;28;20054;-79